sensor_id;sensor_type;location;lat;lon;timestamp;P1;durP1;ratioP1;P2;durP2;ratioP2
24517;SDS011;12678;51.336;12.406;2023-03-21T00:00:36;22.63;;;10.07;;
24517;SDS011;12678;51.336;12.406;2023-03-21T00:03:02;18.55;;;8.40;;
24517;SDS011;12678;51.336;12.406;2023-03-21T00:05:28;22.73;;;10.20;;
24517;SDS011;12678;51.336;12.406;2023-03-21T00:07:54;24.02;;;9.57;;
24517;SDS011;12678;51.336;12.406;2023-03-21T00:10:20;19.75;;;9.20;;
24517;SDS011;12678;51.336;12.406;2023-03-21T00:12:46;17.10;;;8.48;;
24517;SDS011;12678;51.336;12.406;2023-03-21T00:15:14;14.27;;;8.15;;
24517;SDS011;12678;51.336;12.406;2023-03-21T00:17:42;16.02;;;8.93;;
24517;SDS011;12678;51.336;12.406;2023-03-21T00:20:09;17.50;;;8.75;;
24517;SDS011;12678;51.336;12.406;2023-03-21T00:22:39;18.90;;;9.07;;
24517;SDS011;12678;51.336;12.406;2023-03-21T00:25:06;18.02;;;8.50;;
24517;SDS011;12678;51.336;12.406;2023-03-21T00:27:34;17.20;;;8.00;;
24517;SDS011;12678;51.336;12.406;2023-03-21T00:30:01;15.32;;;8.25;;
24517;SDS011;12678;51.336;12.406;2023-03-21T00:32:27;16.65;;;7.15;;
24517;SDS011;12678;51.336;12.406;2023-03-21T00:34:53;11.95;;;6.90;;
24517;SDS011;12678;51.336;12.406;2023-03-21T00:37:19;13.40;;;6.78;;
24517;SDS011;12678;51.336;12.406;2023-03-21T00:39:46;16.92;;;6.82;;
24517;SDS011;12678;51.336;12.406;2023-03-21T00:42:16;10.98;;;6.32;;
24517;SDS011;12678;51.336;12.406;2023-03-21T00:44:42;13.38;;;6.38;;
24517;SDS011;12678;51.336;12.406;2023-03-21T00:47:09;9.95;;;5.13;;
24517;SDS011;12678;51.336;12.406;2023-03-21T00:49:35;15.82;;;6.57;;
24517;SDS011;12678;51.336;12.406;2023-03-21T00:52:06;9.23;;;5.30;;
24517;SDS011;12678;51.336;12.406;2023-03-21T00:54:33;12.48;;;6.28;;
24517;SDS011;12678;51.336;12.406;2023-03-21T00:56:59;16.48;;;4.85;;
24517;SDS011;12678;51.336;12.406;2023-03-21T00:59:26;6.75;;;4.47;;
24517;SDS011;12678;51.336;12.406;2023-03-21T01:01:53;8.48;;;4.65;;
24517;SDS011;12678;51.336;12.406;2023-03-21T01:04:19;7.55;;;4.68;;
24517;SDS011;12678;51.336;12.406;2023-03-21T01:06:45;12.25;;;4.90;;
24517;SDS011;12678;51.336;12.406;2023-03-21T01:09:16;11.55;;;6.03;;
24517;SDS011;12678;51.336;12.406;2023-03-21T01:11:43;10.20;;;5.53;;
24517;SDS011;12678;51.336;12.406;2023-03-21T01:14:09;17.27;;;6.75;;
24517;SDS011;12678;51.336;12.406;2023-03-21T01:16:36;10.18;;;5.25;;
24517;SDS011;12678;51.336;12.406;2023-03-21T01:19:02;10.77;;;5.47;;
24517;SDS011;12678;51.336;12.406;2023-03-21T01:21:29;11.25;;;5.65;;
24517;SDS011;12678;51.336;12.406;2023-03-21T01:23:56;10.35;;;4.90;;
24517;SDS011;12678;51.336;12.406;2023-03-21T01:26:22;9.63;;;5.60;;
24517;SDS011;12678;51.336;12.406;2023-03-21T01:28:47;12.82;;;5.15;;
24517;SDS011;12678;51.336;12.406;2023-03-21T01:31:14;12.82;;;5.28;;
24517;SDS011;12678;51.336;12.406;2023-03-21T01:33:41;9.35;;;5.65;;
24517;SDS011;12678;51.336;12.406;2023-03-21T01:36:08;11.40;;;5.43;;
24517;SDS011;12678;51.336;12.406;2023-03-21T01:38:42;11.52;;;5.95;;
24517;SDS011;12678;51.336;12.406;2023-03-21T01:41:25;9.75;;;5.50;;
24517;SDS011;12678;51.336;12.406;2023-03-21T01:43:53;13.68;;;5.65;;
24517;SDS011;12678;51.336;12.406;2023-03-21T01:52:03;16.83;;;5.90;;
24517;SDS011;12678;51.336;12.406;2023-03-21T01:54:33;9.90;;;5.93;;
24517;SDS011;12678;51.336;12.406;2023-03-21T01:57:05;25.13;;;6.47;;
24517;SDS011;12678;51.336;12.406;2023-03-21T01:59:39;11.93;;;6.15;;
24517;SDS011;12678;51.336;12.406;2023-03-21T02:02:14;11.43;;;5.88;;
24517;SDS011;12678;51.336;12.406;2023-03-21T02:04:44;10.25;;;5.63;;
24517;SDS011;12678;51.336;12.406;2023-03-21T02:07:15;11.98;;;6.55;;
24517;SDS011;12678;51.336;12.406;2023-03-21T02:09:49;18.58;;;6.68;;
24517;SDS011;12678;51.336;12.406;2023-03-21T02:12:17;14.27;;;6.28;;
24517;SDS011;12678;51.336;12.406;2023-03-21T02:14:45;12.25;;;6.22;;
24517;SDS011;12678;51.336;12.406;2023-03-21T02:20:13;10.23;;;5.93;;
24517;SDS011;12678;51.336;12.406;2023-03-21T02:30:44;12.05;;;5.70;;
24517;SDS011;12678;51.336;12.406;2023-03-21T02:33:27;9.98;;;5.28;;
24517;SDS011;12678;51.336;12.406;2023-03-21T02:36:05;11.52;;;4.85;;
24517;SDS011;12678;51.336;12.406;2023-03-21T02:41:31;12.43;;;4.95;;
24517;SDS011;12678;51.336;12.406;2023-03-21T02:44:06;15.45;;;5.57;;
24517;SDS011;12678;51.336;12.406;2023-03-21T02:46:48;9.60;;;5.55;;
24517;SDS011;12678;51.336;12.406;2023-03-21T02:51:50;10.40;;;5.20;;
24517;SDS011;12678;51.336;12.406;2023-03-21T02:54:20;14.20;;;5.22;;
24517;SDS011;12678;51.336;12.406;2023-03-21T02:56:47;12.85;;;5.03;;
24517;SDS011;12678;51.336;12.406;2023-03-21T02:59:16;13.00;;;5.72;;
24517;SDS011;12678;51.336;12.406;2023-03-21T03:01:45;8.20;;;5.03;;
24517;SDS011;12678;51.336;12.406;2023-03-21T03:04:17;12.32;;;6.00;;
24517;SDS011;12678;51.336;12.406;2023-03-21T03:09:38;10.35;;;5.40;;
24517;SDS011;12678;51.336;12.406;2023-03-21T03:12:10;15.85;;;5.70;;
24517;SDS011;12678;51.336;12.406;2023-03-21T03:25:41;12.65;;;5.57;;
24517;SDS011;12678;51.336;12.406;2023-03-21T03:28:16;13.63;;;6.50;;
24517;SDS011;12678;51.336;12.406;2023-03-21T03:30:45;18.35;;;9.50;;
24517;SDS011;12678;51.336;12.406;2023-03-21T03:33:12;14.23;;;7.90;;
24517;SDS011;12678;51.336;12.406;2023-03-21T03:35:41;10.52;;;5.18;;
24517;SDS011;12678;51.336;12.406;2023-03-21T03:38:08;11.65;;;4.63;;
24517;SDS011;12678;51.336;12.406;2023-03-21T03:40:40;9.32;;;5.15;;
24517;SDS011;12678;51.336;12.406;2023-03-21T03:43:12;13.10;;;5.78;;
24517;SDS011;12678;51.336;12.406;2023-03-21T03:45:48;17.35;;;6.78;;
24517;SDS011;12678;51.336;12.406;2023-03-21T03:48:41;9.27;;;5.72;;
24517;SDS011;12678;51.336;12.406;2023-03-21T03:51:32;10.52;;;4.60;;
24517;SDS011;12678;51.336;12.406;2023-03-21T03:54:04;13.13;;;4.57;;
24517;SDS011;12678;51.336;12.406;2023-03-21T03:56:36;8.40;;;4.93;;
24517;SDS011;12678;51.336;12.406;2023-03-21T03:59:03;10.45;;;4.90;;
24517;SDS011;12678;51.336;12.406;2023-03-21T04:01:31;7.80;;;4.68;;
24517;SDS011;12678;51.336;12.406;2023-03-21T04:03:58;11.13;;;5.78;;
24517;SDS011;12678;51.336;12.406;2023-03-21T04:06:24;11.95;;;5.43;;
24517;SDS011;12678;51.336;12.406;2023-03-21T04:08:53;11.40;;;4.65;;
24517;SDS011;12678;51.336;12.406;2023-03-21T04:11:20;8.13;;;4.32;;
24517;SDS011;12678;51.336;12.406;2023-03-21T04:13:46;10.27;;;4.70;;
24517;SDS011;12678;51.336;12.406;2023-03-21T04:16:12;8.32;;;5.10;;
24517;SDS011;12678;51.336;12.406;2023-03-21T04:18:39;7.05;;;4.05;;
24517;SDS011;12678;51.336;12.406;2023-03-21T04:21:11;12.95;;;5.45;;
24517;SDS011;12678;51.336;12.406;2023-03-21T04:23:38;9.75;;;4.80;;
24517;SDS011;12678;51.336;12.406;2023-03-21T04:26:04;12.50;;;5.32;;
24517;SDS011;12678;51.336;12.406;2023-03-21T04:28:31;8.73;;;4.43;;
24517;SDS011;12678;51.336;12.406;2023-03-21T04:30:57;9.80;;;4.63;;
24517;SDS011;12678;51.336;12.406;2023-03-21T04:33:23;6.65;;;4.05;;
24517;SDS011;12678;51.336;12.406;2023-03-21T04:35:50;11.63;;;4.50;;
24517;SDS011;12678;51.336;12.406;2023-03-21T04:38:26;6.80;;;4.65;;
24517;SDS011;12678;51.336;12.406;2023-03-21T04:40:54;7.03;;;4.72;;
24517;SDS011;12678;51.336;12.406;2023-03-21T04:43:21;10.73;;;5.68;;
24517;SDS011;12678;51.336;12.406;2023-03-21T04:45:48;7.15;;;4.00;;
24517;SDS011;12678;51.336;12.406;2023-03-21T04:48:14;10.48;;;5.20;;
24517;SDS011;12678;51.336;12.406;2023-03-21T04:50:41;8.43;;;4.15;;
24517;SDS011;12678;51.336;12.406;2023-03-21T04:53:08;8.93;;;4.00;;
24517;SDS011;12678;51.336;12.406;2023-03-21T04:55:34;10.35;;;4.63;;
24517;SDS011;12678;51.336;12.406;2023-03-21T04:58:01;8.75;;;4.70;;
24517;SDS011;12678;51.336;12.406;2023-03-21T05:00:28;8.20;;;4.43;;
24517;SDS011;12678;51.336;12.406;2023-03-21T05:02:54;13.77;;;4.57;;
24517;SDS011;12678;51.336;12.406;2023-03-21T05:05:21;10.00;;;4.53;;
24517;SDS011;12678;51.336;12.406;2023-03-21T05:07:47;8.05;;;3.85;;
24517;SDS011;12678;51.336;12.406;2023-03-21T05:10:13;11.55;;;4.10;;
24517;SDS011;12678;51.336;12.406;2023-03-21T05:12:39;9.40;;;3.85;;
24517;SDS011;12678;51.336;12.406;2023-03-21T05:15:06;10.32;;;4.47;;
24517;SDS011;12678;51.336;12.406;2023-03-21T05:17:32;9.98;;;3.72;;
24517;SDS011;12678;51.336;12.406;2023-03-21T05:19:58;10.13;;;4.40;;
24517;SDS011;12678;51.336;12.406;2023-03-21T05:22:24;17.48;;;4.82;;
24517;SDS011;12678;51.336;12.406;2023-03-21T05:24:52;10.80;;;4.20;;
24517;SDS011;12678;51.336;12.406;2023-03-21T05:27:20;6.93;;;3.70;;
24517;SDS011;12678;51.336;12.406;2023-03-21T05:30:06;9.43;;;3.92;;
24517;SDS011;12678;51.336;12.406;2023-03-21T05:32:38;6.03;;;3.65;;
24517;SDS011;12678;51.336;12.406;2023-03-21T05:35:04;8.27;;;3.53;;
24517;SDS011;12678;51.336;12.406;2023-03-21T05:37:30;10.02;;;3.90;;
24517;SDS011;12678;51.336;12.406;2023-03-21T05:39:56;8.20;;;3.60;;
24517;SDS011;12678;51.336;12.406;2023-03-21T05:42:21;8.40;;;4.30;;
24517;SDS011;12678;51.336;12.406;2023-03-21T05:44:47;7.45;;;3.75;;
24517;SDS011;12678;51.336;12.406;2023-03-21T05:47:13;9.70;;;4.43;;
24517;SDS011;12678;51.336;12.406;2023-03-21T05:49:40;11.68;;;3.70;;
24517;SDS011;12678;51.336;12.406;2023-03-21T05:52:07;7.90;;;4.10;;
24517;SDS011;12678;51.336;12.406;2023-03-21T05:54:33;10.30;;;3.78;;
24517;SDS011;12678;51.336;12.406;2023-03-21T05:56:59;9.63;;;4.05;;
24517;SDS011;12678;51.336;12.406;2023-03-21T05:59:24;5.88;;;3.53;;
24517;SDS011;12678;51.336;12.406;2023-03-21T06:01:50;6.78;;;3.60;;
24517;SDS011;12678;51.336;12.406;2023-03-21T06:04:20;6.82;;;3.03;;
24517;SDS011;12678;51.336;12.406;2023-03-21T06:06:46;16.85;;;3.53;;
24517;SDS011;12678;51.336;12.406;2023-03-21T06:09:12;7.88;;;3.83;;
24517;SDS011;12678;51.336;12.406;2023-03-21T06:11:37;8.60;;;3.72;;
24517;SDS011;12678;51.336;12.406;2023-03-21T06:14:09;7.72;;;3.67;;
24517;SDS011;12678;51.336;12.406;2023-03-21T06:16:35;8.10;;;3.90;;
24517;SDS011;12678;51.336;12.406;2023-03-21T06:19:01;7.35;;;4.45;;
24517;SDS011;12678;51.336;12.406;2023-03-21T06:21:27;6.85;;;3.30;;
24517;SDS011;12678;51.336;12.406;2023-03-21T06:23:52;24.83;;;10.07;;
24517;SDS011;12678;51.336;12.406;2023-03-21T06:26:18;19.23;;;11.13;;
24517;SDS011;12678;51.336;12.406;2023-03-21T06:28:47;11.18;;;5.50;;
24517;SDS011;12678;51.336;12.406;2023-03-21T06:31:13;7.57;;;4.40;;
24517;SDS011;12678;51.336;12.406;2023-03-21T06:33:39;7.10;;;3.85;;
24517;SDS011;12678;51.336;12.406;2023-03-21T06:36:05;11.60;;;4.10;;
24517;SDS011;12678;51.336;12.406;2023-03-21T06:38:31;7.28;;;4.22;;
24517;SDS011;12678;51.336;12.406;2023-03-21T06:40:57;6.18;;;3.42;;
24517;SDS011;12678;51.336;12.406;2023-03-21T06:43:23;7.95;;;3.30;;
24517;SDS011;12678;51.336;12.406;2023-03-21T06:45:49;6.22;;;3.55;;
24517;SDS011;12678;51.336;12.406;2023-03-21T06:48:15;6.78;;;3.38;;
24517;SDS011;12678;51.336;12.406;2023-03-21T06:50:41;9.65;;;3.22;;
24517;SDS011;12678;51.336;12.406;2023-03-21T06:53:07;6.43;;;3.20;;
24517;SDS011;12678;51.336;12.406;2023-03-21T06:55:33;12.05;;;3.95;;
24517;SDS011;12678;51.336;12.406;2023-03-21T06:57:58;10.18;;;3.65;;
24517;SDS011;12678;51.336;12.406;2023-03-21T07:00:24;6.32;;;3.75;;
24517;SDS011;12678;51.336;12.406;2023-03-21T07:02:50;10.38;;;3.80;;
24517;SDS011;12678;51.336;12.406;2023-03-21T07:05:28;6.80;;;3.42;;
24517;SDS011;12678;51.336;12.406;2023-03-21T07:07:54;9.18;;;2.95;;
24517;SDS011;12678;51.336;12.406;2023-03-21T07:10:19;6.95;;;2.72;;
24517;SDS011;12678;51.336;12.406;2023-03-21T07:12:45;6.28;;;3.35;;
24517;SDS011;12678;51.336;12.406;2023-03-21T07:15:11;6.07;;;2.90;;
24517;SDS011;12678;51.336;12.406;2023-03-21T07:17:36;5.18;;;3.38;;
24517;SDS011;12678;51.336;12.406;2023-03-21T07:20:02;14.32;;;3.03;;
24517;SDS011;12678;51.336;12.406;2023-03-21T07:22:32;9.43;;;3.00;;
24517;SDS011;12678;51.336;12.406;2023-03-21T07:24:58;17.88;;;2.88;;
24517;SDS011;12678;51.336;12.406;2023-03-21T07:27:33;7.60;;;3.55;;
24517;SDS011;12678;51.336;12.406;2023-03-21T07:29:59;10.45;;;3.30;;
24517;SDS011;12678;51.336;12.406;2023-03-21T07:32:25;9.70;;;2.95;;
24517;SDS011;12678;51.336;12.406;2023-03-21T07:34:53;9.02;;;3.30;;
24517;SDS011;12678;51.336;12.406;2023-03-21T07:37:20;7.00;;;2.83;;
24517;SDS011;12678;51.336;12.406;2023-03-21T07:39:45;13.50;;;3.67;;
24517;SDS011;12678;51.336;12.406;2023-03-21T07:42:11;3.95;;;2.85;;
24517;SDS011;12678;51.336;12.406;2023-03-21T07:44:37;9.57;;;2.78;;
24517;SDS011;12678;51.336;12.406;2023-03-21T07:47:03;4.20;;;2.65;;
24517;SDS011;12678;51.336;12.406;2023-03-21T07:49:30;5.53;;;2.65;;
24517;SDS011;12678;51.336;12.406;2023-03-21T07:51:56;5.40;;;3.00;;
24517;SDS011;12678;51.336;12.406;2023-03-21T07:54:23;6.10;;;3.00;;
24517;SDS011;12678;51.336;12.406;2023-03-21T07:56:50;8.70;;;3.17;;
24517;SDS011;12678;51.336;12.406;2023-03-21T07:59:15;9.70;;;2.97;;
24517;SDS011;12678;51.336;12.406;2023-03-21T08:01:41;4.50;;;2.92;;
24517;SDS011;12678;51.336;12.406;2023-03-21T08:04:07;4.97;;;2.70;;
24517;SDS011;12678;51.336;12.406;2023-03-21T08:06:34;13.55;;;3.50;;
24517;SDS011;12678;51.336;12.406;2023-03-21T08:08:59;11.15;;;3.40;;
24517;SDS011;12678;51.336;12.406;2023-03-21T08:11:27;14.65;;;3.15;;
24517;SDS011;12678;51.336;12.406;2023-03-21T08:13:55;7.75;;;3.50;;
24517;SDS011;12678;51.336;12.406;2023-03-21T08:16:22;5.57;;;2.80;;
24517;SDS011;12678;51.336;12.406;2023-03-21T08:18:48;6.43;;;2.90;;
24517;SDS011;12678;51.336;12.406;2023-03-21T08:21:14;8.10;;;2.97;;
24517;SDS011;12678;51.336;12.406;2023-03-21T08:23:40;7.18;;;2.70;;
24517;SDS011;12678;51.336;12.406;2023-03-21T08:26:05;5.53;;;2.78;;
24517;SDS011;12678;51.336;12.406;2023-03-21T08:28:31;6.30;;;2.90;;
24517;SDS011;12678;51.336;12.406;2023-03-21T08:30:57;7.07;;;3.10;;
24517;SDS011;12678;51.336;12.406;2023-03-21T08:33:23;8.45;;;3.00;;
24517;SDS011;12678;51.336;12.406;2023-03-21T08:35:49;5.05;;;2.63;;
24517;SDS011;12678;51.336;12.406;2023-03-21T08:38:14;6.70;;;3.55;;
24517;SDS011;12678;51.336;12.406;2023-03-21T08:40:40;5.63;;;2.85;;
24517;SDS011;12678;51.336;12.406;2023-03-21T08:43:06;12.45;;;3.20;;
24517;SDS011;12678;51.336;12.406;2023-03-21T08:45:32;6.90;;;3.13;;
24517;SDS011;12678;51.336;12.406;2023-03-21T08:47:58;7.25;;;2.80;;
24517;SDS011;12678;51.336;12.406;2023-03-21T08:50:25;5.03;;;2.85;;
24517;SDS011;12678;51.336;12.406;2023-03-21T08:52:53;6.20;;;2.60;;
24517;SDS011;12678;51.336;12.406;2023-03-21T08:55:20;5.30;;;2.80;;
24517;SDS011;12678;51.336;12.406;2023-03-21T08:57:46;10.43;;;2.85;;
24517;SDS011;12678;51.336;12.406;2023-03-21T09:00:14;5.05;;;2.65;;
24517;SDS011;12678;51.336;12.406;2023-03-21T09:02:45;7.13;;;2.40;;
24517;SDS011;12678;51.336;12.406;2023-03-21T09:05:13;5.63;;;2.78;;
24517;SDS011;12678;51.336;12.406;2023-03-21T09:07:40;6.50;;;2.90;;
24517;SDS011;12678;51.336;12.406;2023-03-21T09:10:07;5.38;;;2.83;;
24517;SDS011;12678;51.336;12.406;2023-03-21T09:12:35;8.55;;;3.25;;
24517;SDS011;12678;51.336;12.406;2023-03-21T09:15:01;6.93;;;3.00;;
24517;SDS011;12678;51.336;12.406;2023-03-21T09:17:28;4.35;;;2.15;;
24517;SDS011;12678;51.336;12.406;2023-03-21T09:19:55;4.10;;;2.42;;
24517;SDS011;12678;51.336;12.406;2023-03-21T09:22:23;9.27;;;4.78;;
24517;SDS011;12678;51.336;12.406;2023-03-21T09:24:50;9.90;;;3.78;;
24517;SDS011;12678;51.336;12.406;2023-03-21T09:27:16;11.02;;;2.97;;
24517;SDS011;12678;51.336;12.406;2023-03-21T09:29:42;14.60;;;3.47;;
24517;SDS011;12678;51.336;12.406;2023-03-21T09:32:09;10.27;;;2.53;;
24517;SDS011;12678;51.336;12.406;2023-03-21T09:34:36;10.50;;;3.65;;
24517;SDS011;12678;51.336;12.406;2023-03-21T09:37:05;7.63;;;3.25;;
24517;SDS011;12678;51.336;12.406;2023-03-21T09:39:37;6.10;;;3.20;;
24517;SDS011;12678;51.336;12.406;2023-03-21T09:47:51;6.22;;;2.75;;
24517;SDS011;12678;51.336;12.406;2023-03-21T09:50:19;6.07;;;2.85;;
24517;SDS011;12678;51.336;12.406;2023-03-21T09:55:38;5.50;;;2.63;;
24517;SDS011;12678;51.336;12.406;2023-03-21T10:00:56;8.32;;;3.22;;
24517;SDS011;12678;51.336;12.406;2023-03-21T10:03:34;8.90;;;3.30;;
24517;SDS011;12678;51.336;12.406;2023-03-21T10:06:11;9.48;;;2.80;;
24517;SDS011;12678;51.336;12.406;2023-03-21T10:08:40;9.32;;;3.28;;
24517;SDS011;12678;51.336;12.406;2023-03-21T10:11:13;10.70;;;3.28;;
24517;SDS011;12678;51.336;12.406;2023-03-21T10:13:48;5.50;;;2.90;;
24517;SDS011;12678;51.336;12.406;2023-03-21T10:16:29;6.38;;;3.17;;
24517;SDS011;12678;51.336;12.406;2023-03-21T10:18:59;5.68;;;2.67;;
24517;SDS011;12678;51.336;12.406;2023-03-21T10:21:33;7.90;;;3.03;;
24517;SDS011;12678;51.336;12.406;2023-03-21T10:24:10;6.00;;;3.42;;
24517;SDS011;12678;51.336;12.406;2023-03-21T10:26:38;8.70;;;3.60;;
24517;SDS011;12678;51.336;12.406;2023-03-21T10:29:04;8.52;;;3.40;;
24517;SDS011;12678;51.336;12.406;2023-03-21T10:31:30;7.57;;;3.15;;
24517;SDS011;12678;51.336;12.406;2023-03-21T10:33:58;7.82;;;3.00;;
24517;SDS011;12678;51.336;12.406;2023-03-21T10:36:30;7.68;;;3.00;;
24517;SDS011;12678;51.336;12.406;2023-03-21T10:41:29;7.07;;;3.22;;
24517;SDS011;12678;51.336;12.406;2023-03-21T10:46:35;10.95;;;4.28;;
24517;SDS011;12678;51.336;12.406;2023-03-21T10:49:02;7.20;;;3.53;;
24517;SDS011;12678;51.336;12.406;2023-03-21T10:51:31;9.63;;;3.47;;
24517;SDS011;12678;51.336;12.406;2023-03-21T10:54:03;14.43;;;3.40;;
24517;SDS011;12678;51.336;12.406;2023-03-21T10:56:36;8.40;;;3.13;;
24517;SDS011;12678;51.336;12.406;2023-03-21T10:59:05;8.48;;;2.78;;
24517;SDS011;12678;51.336;12.406;2023-03-21T11:01:38;9.25;;;3.42;;
24517;SDS011;12678;51.336;12.406;2023-03-21T11:04:13;8.20;;;3.20;;
24517;SDS011;12678;51.336;12.406;2023-03-21T11:06:42;4.53;;;2.63;;
24517;SDS011;12678;51.336;12.406;2023-03-21T11:09:15;5.07;;;2.97;;
24517;SDS011;12678;51.336;12.406;2023-03-21T11:14:41;6.95;;;3.00;;
24517;SDS011;12678;51.336;12.406;2023-03-21T11:22:24;6.65;;;3.25;;
24517;SDS011;12678;51.336;12.406;2023-03-21T11:24:55;13.90;;;3.10;;
24517;SDS011;12678;51.336;12.406;2023-03-21T11:27:23;4.72;;;2.55;;
24517;SDS011;12678;51.336;12.406;2023-03-21T11:29:53;5.40;;;2.60;;
24517;SDS011;12678;51.336;12.406;2023-03-21T11:32:25;9.02;;;2.58;;
24517;SDS011;12678;51.336;12.406;2023-03-21T11:34:59;4.90;;;3.38;;
24517;SDS011;12678;51.336;12.406;2023-03-21T11:37:37;8.98;;;3.33;;
24517;SDS011;12678;51.336;12.406;2023-03-21T11:40:50;10.18;;;3.10;;
24517;SDS011;12678;51.336;12.406;2023-03-21T11:45:41;9.32;;;3.45;;
24517;SDS011;12678;51.336;12.406;2023-03-21T11:48:24;6.05;;;2.47;;
24517;SDS011;12678;51.336;12.406;2023-03-21T11:50:51;8.70;;;3.30;;
24517;SDS011;12678;51.336;12.406;2023-03-21T12:06:59;3.75;;;2.63;;
24517;SDS011;12678;51.336;12.406;2023-03-21T12:09:34;3.85;;;2.22;;
24517;SDS011;12678;51.336;12.406;2023-03-21T12:26:08;4.53;;;2.80;;
24517;SDS011;12678;51.336;12.406;2023-03-21T12:33:56;5.75;;;2.30;;
24517;SDS011;12678;51.336;12.406;2023-03-21T12:39:20;5.55;;;3.05;;
24517;SDS011;12678;51.336;12.406;2023-03-21T12:47:38;6.63;;;2.83;;
24517;SDS011;12678;51.336;12.406;2023-03-21T12:52:42;5.97;;;2.10;;
24517;SDS011;12678;51.336;12.406;2023-03-21T12:57:51;3.40;;;1.92;;
24517;SDS011;12678;51.336;12.406;2023-03-21T13:00:23;4.30;;;2.25;;
24517;SDS011;12678;51.336;12.406;2023-03-21T13:08:47;10.18;;;2.15;;
24517;SDS011;12678;51.336;12.406;2023-03-21T13:11:22;5.57;;;2.65;;
24517;SDS011;12678;51.336;12.406;2023-03-21T13:16:32;3.80;;;2.40;;
24517;SDS011;12678;51.336;12.406;2023-03-21T13:21:57;3.42;;;2.20;;
24517;SDS011;12678;51.336;12.406;2023-03-21T13:27:41;3.63;;;2.45;;
24517;SDS011;12678;51.336;12.406;2023-03-21T13:29:51;3.15;;;1.90;;
24517;SDS011;12678;51.336;12.406;2023-03-21T13:32:38;3.72;;;1.98;;
24517;SDS011;12678;51.336;12.406;2023-03-21T13:35:15;3.70;;;2.55;;
24517;SDS011;12678;51.336;12.406;2023-03-21T13:40:42;4.75;;;1.75;;
24517;SDS011;12678;51.336;12.406;2023-03-21T13:43:38;5.43;;;2.95;;
24517;SDS011;12678;51.336;12.406;2023-03-21T13:46:08;3.40;;;1.83;;
24517;SDS011;12678;51.336;12.406;2023-03-21T13:51:07;5.28;;;2.10;;
24517;SDS011;12678;51.336;12.406;2023-03-21T13:53:37;3.08;;;1.92;;
24517;SDS011;12678;51.336;12.406;2023-03-21T14:06:46;3.75;;;2.25;;
24517;SDS011;12678;51.336;12.406;2023-03-21T14:09:15;4.03;;;2.70;;
24517;SDS011;12678;51.336;12.406;2023-03-21T14:11:55;5.95;;;1.90;;
24517;SDS011;12678;51.336;12.406;2023-03-21T14:14:22;2.85;;;1.70;;
24517;SDS011;12678;51.336;12.406;2023-03-21T14:16:53;3.75;;;2.10;;
24517;SDS011;12678;51.336;12.406;2023-03-21T14:19:19;4.10;;;1.70;;
24517;SDS011;12678;51.336;12.406;2023-03-21T14:21:54;6.18;;;1.80;;
24517;SDS011;12678;51.336;12.406;2023-03-21T14:24:21;3.85;;;2.00;;
24517;SDS011;12678;51.336;12.406;2023-03-21T14:26:50;6.00;;;2.03;;
24517;SDS011;12678;51.336;12.406;2023-03-21T14:29:19;7.53;;;1.88;;
24517;SDS011;12678;51.336;12.406;2023-03-21T14:31:55;3.58;;;2.00;;
24517;SDS011;12678;51.336;12.406;2023-03-21T14:34:22;5.18;;;1.95;;
24517;SDS011;12678;51.336;12.406;2023-03-21T14:36:49;3.67;;;2.08;;
24517;SDS011;12678;51.336;12.406;2023-03-21T14:39:16;3.90;;;2.35;;
24517;SDS011;12678;51.336;12.406;2023-03-21T14:41:51;5.32;;;2.20;;
24517;SDS011;12678;51.336;12.406;2023-03-21T14:44:22;5.07;;;2.15;;
24517;SDS011;12678;51.336;12.406;2023-03-21T14:46:58;4.15;;;2.85;;
24517;SDS011;12678;51.336;12.406;2023-03-21T14:49:30;4.72;;;1.88;;
24517;SDS011;12678;51.336;12.406;2023-03-21T14:52:05;6.57;;;2.30;;
24517;SDS011;12678;51.336;12.406;2023-03-21T14:54:35;7.47;;;2.05;;
24517;SDS011;12678;51.336;12.406;2023-03-21T14:57:06;3.28;;;1.67;;
24517;SDS011;12678;51.336;12.406;2023-03-21T14:59:36;3.70;;;1.92;;
24517;SDS011;12678;51.336;12.406;2023-03-21T15:02:14;4.80;;;2.20;;
24517;SDS011;12678;51.336;12.406;2023-03-21T15:04:45;3.88;;;2.38;;
24517;SDS011;12678;51.336;12.406;2023-03-21T15:07:23;4.57;;;2.00;;
24517;SDS011;12678;51.336;12.406;2023-03-21T15:09:58;7.10;;;2.70;;
24517;SDS011;12678;51.336;12.406;2023-03-21T15:12:27;4.20;;;2.22;;
24517;SDS011;12678;51.336;12.406;2023-03-21T15:14:54;4.20;;;1.80;;
24517;SDS011;12678;51.336;12.406;2023-03-21T15:17:20;5.80;;;2.90;;
24517;SDS011;12678;51.336;12.406;2023-03-21T15:19:46;4.80;;;2.15;;
24517;SDS011;12678;51.336;12.406;2023-03-21T15:22:19;5.65;;;2.05;;
24517;SDS011;12678;51.336;12.406;2023-03-21T15:24:59;3.15;;;2.05;;
24517;SDS011;12678;51.336;12.406;2023-03-21T15:27:31;3.22;;;1.75;;
24517;SDS011;12678;51.336;12.406;2023-03-21T15:29:59;5.30;;;2.53;;
24517;SDS011;12678;51.336;12.406;2023-03-21T15:32:26;5.82;;;2.40;;
24517;SDS011;12678;51.336;12.406;2023-03-21T15:34:52;3.10;;;2.10;;
24517;SDS011;12678;51.336;12.406;2023-03-21T15:37:26;4.53;;;2.08;;
24517;SDS011;12678;51.336;12.406;2023-03-21T15:39:53;4.60;;;2.05;;
24517;SDS011;12678;51.336;12.406;2023-03-21T15:42:33;2.55;;;1.70;;
24517;SDS011;12678;51.336;12.406;2023-03-21T15:47:49;3.97;;;1.90;;
24517;SDS011;12678;51.336;12.406;2023-03-21T15:50:36;4.10;;;1.80;;
24517;SDS011;12678;51.336;12.406;2023-03-21T15:53:04;4.35;;;1.52;;
24517;SDS011;12678;51.336;12.406;2023-03-21T15:58:20;3.22;;;1.85;;
24517;SDS011;12678;51.336;12.406;2023-03-21T16:00:49;3.83;;;1.80;;
24517;SDS011;12678;51.336;12.406;2023-03-21T16:08:31;1.98;;;1.40;;
24517;SDS011;12678;51.336;12.406;2023-03-21T16:11:16;5.85;;;1.80;;
24517;SDS011;12678;51.336;12.406;2023-03-21T16:13:46;4.45;;;1.80;;
24517;SDS011;12678;51.336;12.406;2023-03-21T16:16:14;3.30;;;1.70;;
24517;SDS011;12678;51.336;12.406;2023-03-21T16:18:50;3.22;;;1.58;;
24517;SDS011;12678;51.336;12.406;2023-03-21T16:21:19;7.05;;;2.53;;
24517;SDS011;12678;51.336;12.406;2023-03-21T16:23:47;6.38;;;3.72;;
24517;SDS011;12678;51.336;12.406;2023-03-21T16:26:14;24.80;;;9.80;;
24517;SDS011;12678;51.336;12.406;2023-03-21T16:28:42;21.25;;;10.23;;
24517;SDS011;12678;51.336;12.406;2023-03-21T16:31:11;29.77;;;11.57;;
24517;SDS011;12678;51.336;12.406;2023-03-21T16:33:39;20.77;;;11.45;;
24517;SDS011;12678;51.336;12.406;2023-03-21T16:36:08;15.70;;;8.95;;
24517;SDS011;12678;51.336;12.406;2023-03-21T16:38:41;10.43;;;5.22;;
24517;SDS011;12678;51.336;12.406;2023-03-21T16:41:12;9.30;;;4.82;;
24517;SDS011;12678;51.336;12.406;2023-03-21T16:43:39;9.77;;;3.97;;
24517;SDS011;12678;51.336;12.406;2023-03-21T16:46:12;4.93;;;2.83;;
24517;SDS011;12678;51.336;12.406;2023-03-21T16:48:46;4.38;;;2.60;;
24517;SDS011;12678;51.336;12.406;2023-03-21T16:51:17;2.67;;;1.65;;
24517;SDS011;12678;51.336;12.406;2023-03-21T16:53:45;4.43;;;2.05;;
24517;SDS011;12678;51.336;12.406;2023-03-21T16:56:16;6.30;;;2.33;;
24517;SDS011;12678;51.336;12.406;2023-03-21T16:58:45;4.05;;;1.60;;
24517;SDS011;12678;51.336;12.406;2023-03-21T17:01:15;2.65;;;1.75;;
24517;SDS011;12678;51.336;12.406;2023-03-21T17:03:43;2.90;;;1.90;;
24517;SDS011;12678;51.336;12.406;2023-03-21T17:06:13;7.68;;;2.05;;
24517;SDS011;12678;51.336;12.406;2023-03-21T17:08:40;2.53;;;1.92;;
24517;SDS011;12678;51.336;12.406;2023-03-21T17:11:10;13.95;;;2.13;;
24517;SDS011;12678;51.336;12.406;2023-03-21T17:13:37;3.95;;;2.45;;